Time;durP1;ratioP1;P1;durP2;ratioP2;P2;SDS_P1;SDS_P2;PMS_P1;PMS_P2;Temp;Humidity;BMP_temperature;BMP_pressure;BME280_temperature;BME280_humidity;BME280_pressure;Samples;Min_cycle;Max_cycle;Signal;HPM_P1;HPM_P2
2022/06/12 00:02:16;;;;;;;11.97;7.73;;;;;;;18.98;80.34;100970.06;3655793;79;99174;-87
2022/06/12 00:07:17;;;;;;;10.97;7.47;;;;;;;19.00;80.47;100982.97;3660539;79;99261;-87
2022/06/12 00:12:18;;;;;;;13.23;9.10;;;;;;;18.97;79.11;100991.58;3651990;79;99460;-86
2022/06/12 00:17:19;;;;;;;13.53;7.70;;;;;;;18.95;79.01;100996.80;3645552;79;99493;-87
2022/06/12 00:22:20;;;;;;;12.23;7.17;;;;;;;18.94;77.93;100993.02;3663122;79;99534;-87
2022/06/12 00:27:22;;;;;;;13.63;7.60;;;;;;;18.93;77.13;100988.66;3658590;79;99328;-86
2022/06/12 00:32:24;;;;;;;10.53;7.30;;;;;;;18.94;77.95;100978.48;3665256;79;99534;-87
2022/06/12 00:37:27;;;;;;;14.67;7.47;;;;;;;18.98;78.48;100983.41;3657638;79;99288;-86
2022/06/12 00:42:39;;;;;;;11.80;6.75;;;;;;;19.01;79.13;100972.79;3665195;79;99491;-87
2022/06/12 00:47:40;;;;;;;10.72;7.17;;;;;;;19.03;79.02;100982.91;3658661;79;99072;-86
2022/06/12 00:52:46;;;;;;;12.03;7.50;;;;;;;19.04;79.30;100971.16;3658178;79;99463;-86
2022/06/12 00:57:47;;;;;;;;;;;;;;;19.07;79.14;100965.53;3659361;80;98719;-86
2022/06/12 01:02:49;;;;;;;11.70;7.07;;;;;;;19.07;79.77;100965.53;3679632;80;85052;-85
2022/06/12 01:07:54;;;;;;;11.20;7.03;;;;;;;19.04;78.26;100960.80;3639275;79;99257;-86
2022/06/12 01:13:03;;;;;;;10.73;7.30;;;;;;;19.00;77.03;100968.43;3632272;80;99457;-85
2022/06/12 01:18:10;;;;;;;11.65;7.25;;;;;;;18.96;76.60;100961.33;3619717;80;99400;-86
2022/06/12 01:23:22;;;;;;;12.15;7.62;;;;;;;18.91;76.42;100955.60;3619019;81;99260;-86
2022/06/12 01:28:45;;;;;;;12.25;6.85;;;;;;;18.89;76.01;100959.42;3615550;81;99427;-86
2022/06/12 01:34:13;;;;;;;9.43;6.15;;;;;;;18.88;76.46;100952.27;3619007;81;26438;-86
2022/06/12 01:39:31;;;;;;;12.03;6.40;;;;;;;18.85;75.88;100958.67;3612829;81;98495;-86
2022/06/12 01:44:44;;;;;;;10.90;6.03;;;;;;;18.81;76.05;100959.33;3632048;80;99547;-86
2022/06/12 01:50:14;;;;;;;12.03;6.25;;;;;;;18.79;76.59;100963.73;3589822;81;99203;-86
2022/06/12 01:55:32;;;;;;;9.80;6.05;;;;;;;18.73;76.57;100958.45;3625398;80;99495;-86
2022/06/12 02:00:35;;;;;;;11.65;6.33;;;;;;;18.63;76.83;100960.18;3629534;79;99103;-86
2022/06/12 02:05:44;;;;;;;10.60;6.17;;;;;;;18.59;77.60;100964.23;3681716;79;99390;-85
2022/06/12 02:10:54;;;;;;;10.18;6.40;;;;;;;18.44;78.34;100959.45;3661718;79;99391;-85
2022/06/12 02:16:06;;;;;;;9.80;5.83;;;;;;;18.44;78.34;100959.45;3577748;81;25804;-86
2022/06/12 02:21:30;;;;;;;11.85;6.05;;;;;;;18.38;78.69;100959.72;3588722;81;98982;-86
2022/06/12 02:26:49;;;;;;;9.27;6.00;;;;;;;18.31;79.58;100965.33;3636909;79;99236;-86
2022/06/12 02:31:53;;;;;;;11.05;7.60;;;;;;;18.25;79.98;100969.78;3622715;79;99052;-86
2022/06/12 02:37:11;;;;;;;12.60;7.17;;;;;;;18.20;80.33;100961.88;3678499;79;99307;-86
2022/06/12 02:42:17;;;;;;;10.03;6.92;;;;;;;18.13;80.65;100958.38;3689511;79;99396;-86
2022/06/12 02:47:23;;;;;;;10.72;7.72;;;;;;;18.06;80.83;100966.23;3680297;79;99321;-86
2022/06/12 02:52:54;;;;;;;11.55;7.87;;;;;;;18.03;81.63;100968.44;3696082;79;99329;-86
2022/06/12 02:58:06;;;;;;;13.03;7.58;;;;;;;18.00;82.36;100966.50;3651077;79;98908;-85
2022/06/12 03:03:28;;;;;;;10.82;7.60;;;;;;;17.96;82.75;100972.70;3681082;79;99111;-86
2022/06/12 03:08:34;;;;;;;11.87;8.00;;;;;;;17.93;83.10;100980.47;3640948;79;99240;-86
2022/06/12 03:13:36;;;;;;;11.73;8.03;;;;;;;17.89;83.89;100979.74;3541970;82;99363;-85
2022/06/12 03:18:42;;;;;;;11.38;7.75;;;;;;;17.85;84.21;100974.80;3592036;81;99356;-85
2022/06/12 03:24:37;;;;;;;11.03;8.23;;;;;;;17.84;84.56;100982.97;3585163;82;98930;-85
2022/06/12 03:30:15;;;;;;;11.43;8.23;;;;;;;17.80;85.02;100987.77;3572039;81;99387;-85
2022/06/12 03:35:49;;;;;;;11.55;7.83;;;;;;;17.77;85.15;100990.59;3479283;82;98947;-86
2022/06/12 03:41:35;;;;;;;12.47;8.40;;;;;;;17.72;85.59;100987.63;3557650;81;99337;-86
2022/06/12 03:47:09;;;;;;;12.87;8.33;;;;;;;17.69;85.99;100987.08;3551409;81;99361;-85
2022/06/12 03:52:40;;;;;;;10.93;8.20;;;;;;;17.67;86.02;100986.72;3589466;81;26256;-85
2022/06/12 03:57:53;;;;;;;11.10;8.08;;;;;;;17.63;86.17;100990.13;3477414;82;98972;-85
2022/06/12 04:03:03;;;;;;;13.60;8.68;;;;;;;17.61;86.32;100988.95;3589799;81;97962;-85
2022/06/12 04:08:10;;;;;;;13.55;9.03;;;;;;;17.61;86.70;100987.56;3569660;81;99397;-85
2022/06/12 04:13:15;;;;;;;11.63;8.83;;;;;;;17.61;87.00;100990.34;3638894;80;99390;-85
2022/06/12 04:18:16;;;;;;;14.25;9.48;;;;;;;17.61;87.35;100991.73;3678582;78;99482;-83
2022/06/12 04:23:23;;;;;;;14.25;9.40;;;;;;;17.62;87.45;100998.88;3687804;78;98989;-84
2022/06/12 04:28:35;;;;;;;12.93;8.43;;;;;;;17.63;87.89;101002.65;3587694;80;98921;-85
2022/06/12 04:34:15;;;;;;;11.93;7.90;;;;;;;17.64;87.60;100998.66;3677883;78;99150;-85
2022/06/12 04:39:21;;;;;;;11.70;7.67;;;;;;;17.64;87.58;100994.48;3590448;80;99210;-85
2022/06/12 04:44:23;;;;;;;11.80;8.47;;;;;;;17.68;87.70;100995.25;3600795;80;99132;-85
2022/06/12 04:49:28;;;;;;;10.20;6.92;;;;;;;17.70;87.38;100990.64;3608421;80;99152;-85
2022/06/12 04:54:31;;;;;;;8.80;6.33;;;;;;;17.78;87.23;101001.33;3639079;79;99439;-85
2022/06/12 04:59:32;;;;;;;12.00;7.35;;;;;;;17.86;86.87;100998.66;3671487;78;99190;-84
2022/06/12 05:04:35;;;;;;;10.32;6.30;;;;;;;18.00;86.39;101006.08;3709545;78;26281;-85
2022/06/12 05:09:39;;;;;;;9.25;5.97;;;;;;;18.14;85.51;101001.16;3666328;79;99259;-85
2022/06/12 05:14:42;;;;;;;9.65;5.15;;;;;;;18.37;84.95;100999.92;3623024;81;99123;-85
2022/06/12 05:19:45;;;;;;;9.38;5.58;;;;;;;18.71;84.91;100994.34;3608834;81;98900;-85
2022/06/12 05:24:46;;;;;;;11.28;5.05;;;;;;;19.17;83.81;100993.08;3616180;80;99175;-84
2022/06/12 05:29:47;;;;;;;9.90;5.07;;;;;;;19.80;82.45;100993.48;3601547;81;99046;-85
2022/06/12 05:34:49;;;;;;;9.20;4.90;;;;;;;20.55;80.94;100992.45;3624142;81;99124;-84
2022/06/12 05:39:50;;;;;;;10.33;4.30;;;;;;;21.32;79.42;100997.77;3610072;81;98646;-85
2022/06/12 05:44:52;;;;;;;11.20;4.25;;;;;;;22.31;78.80;100996.81;3614657;81;99455;-85
2022/06/12 05:49:53;;;;;;;8.60;4.20;;;;;;;23.24;74.09;101002.09;3522802;82;98999;-85
2022/06/12 05:54:54;;;;;;;8.50;3.65;;;;;;;23.62;70.18;100995.23;3535416;82;99219;-85
2022/06/12 05:59:55;;;;;;;9.95;3.77;;;;;;;24.40;70.09;100989.08;3525039;82;99153;-86
2022/06/12 06:04:56;;;;;;;7.17;3.73;;;;;;;25.22;66.59;100999.00;3565702;81;112022;-85
2022/06/12 06:09:57;;;;;;;6.28;3.27;;;;;;;25.82;64.44;100996.56;3599373;80;98945;-86
2022/06/12 06:14:58;;;;;;;9.80;4.08;;;;;;;26.67;63.18;100993.80;3617128;80;99075;-87
2022/06/12 06:19:59;;;;;;;7.20;3.50;;;;;;;27.06;58.36;101001.22;3611242;81;98476;-86
2022/06/12 06:25:00;;;;;;;8.05;3.40;;;;;;;27.19;54.85;101007.47;3615735;80;99243;-86
2022/06/12 06:30:02;;;;;;;7.72;3.60;;;;;;;27.73;56.18;101008.62;3618992;81;99295;-86
2022/06/12 06:35:05;;;;;;;9.45;3.33;;;;;;;27.90;52.99;101007.62;3624545;81;99152;-85
2022/06/12 06:40:09;;;;;;;7.87;2.90;;;;;;;27.97;52.82;101004.42;3608769;81;98619;-86
2022/06/12 06:50:34;;;;;;;6.83;3.12;;;;;;;28.79;50.91;101000.42;3606238;80;98734;-85
2022/06/12 06:55:36;;;;;;;8.00;3.15;;;;;;;29.52;51.27;101002.55;3613305;80;98777;-85
2022/06/12 07:00:41;;;;;;;8.73;2.98;;;;;;;29.64;48.59;100995.02;3610892;80;99281;-85
2022/06/12 07:05:45;;;;;;;10.15;3.15;;;;;;;29.81;47.78;100992.53;3609221;81;99163;-85
2022/06/12 07:10:47;;;;;;;7.83;2.43;;;;;;;29.96;47.39;101000.35;3625670;79;98545;-85
2022/06/12 07:15:48;;;;;;;6.40;2.72;;;;;;;30.36;45.15;100996.09;3641426;79;98504;-86
2022/06/12 07:20:55;;;;;;;7.03;3.08;;;;;;;30.46;44.47;100987.55;3637116;79;98808;-85
2022/06/12 07:26:03;;;;;;;5.37;2.67;;;;;;;30.88;43.60;100989.17;3643323;79;99437;-86
2022/06/12 07:31:07;;;;;;;7.20;3.10;;;;;;;31.05;42.72;100977.30;3642246;79;99228;-86
2022/06/12 07:36:11;;;;;;;6.03;2.90;;;;;;;31.35;42.10;100982.08;3644373;79;99255;-85
2022/06/12 07:41:14;;;;;;;7.10;2.62;;;;;;;31.70;41.43;100977.64;3630427;79;98479;-86
2022/06/12 07:46:18;;;;;;;7.70;2.37;;;;;;;32.17;40.06;100977.48;3638535;80;25852;-85
2022/06/12 07:51:21;;;;;;;6.70;2.52;;;;;;;32.27;40.60;100971.73;3641477;79;99170;-86
2022/06/12 07:56:25;;;;;;;9.48;2.60;;;;;;;32.85;39.59;100973.02;3645836;79;99033;-86
2022/06/12 08:01:28;;;;;;;13.25;3.25;;;;;;;33.21;39.20;100962.63;3640921;79;98880;-85
2022/06/12 08:06:31;;;;;;;7.42;2.70;;;;;;;33.40;38.65;100967.97;3628131;79;99393;-86
2022/06/12 08:11:33;;;;;;;5.67;2.60;;;;;;;33.76;38.70;100968.24;3620595;79;99173;-86
2022/06/12 08:16:36;;;;;;;7.08;2.70;;;;;;;34.06;37.83;100962.06;3596372;81;98926;-84
2022/06/12 08:21:37;;;;;;;7.62;2.80;;;;;;;34.38;37.55;100964.66;3593204;81;99007;-85
2022/06/12 08:26:39;;;;;;;6.70;2.80;;;;;;;34.61;35.94;100964.62;3590377;80;99045;-85
2022/06/12 08:31:51;;;;;;;6.40;2.52;;;;;;;34.46;34.68;100964.20;3593539;81;99484;-85
2022/06/12 08:36:57;;;;;;;4.72;2.27;;;;;;;34.55;35.47;100951.02;3590756;81;99135;-84
2022/06/12 08:42:15;;;;;;;5.58;2.30;;;;;;;35.00;34.91;100940.80;3594628;81;99220;-85
2022/06/12 08:47:31;;;;;;;4.20;2.10;;;;;;;35.17;33.38;100944.28;3588461;81;98990;-86
2022/06/12 08:53:01;;;;;;;6.03;2.92;;;;;;;35.35;33.63;100947.25;3542013;81;25916;-86
2022/06/12 08:58:32;;;;;;;6.45;2.05;;;;;;;35.72;32.36;100945.95;3557545;81;99071;-85
2022/06/12 09:03:41;;;;;;;6.33;2.27;;;;;;;36.19;32.48;100946.42;3589375;81;98954;-86
2022/06/12 09:09:02;;;;;;;6.55;2.02;;;;;;;36.73;33.08;100939.77;3551539;81;99607;-87
2022/06/12 09:14:36;;;;;;;6.78;2.70;;;;;;;37.18;32.19;100930.52;3647206;78;99176;-87
2022/06/12 09:20:12;;;;;;;5.45;1.52;;;;;;;37.57;30.09;100921.30;3680943;78;98945;-86
2022/06/12 09:25:33;;;;;;;4.75;2.08;;;;;;;37.65;31.38;100924.28;3692150;79;99191;-90
2022/06/12 09:30:43;;;;;;;4.67;2.10;;;;;;;37.81;28.37;100918.17;3690728;78;99250;-84
2022/06/12 09:36:28;;;;;;;2.98;1.80;;;;;;;37.58;30.21;100911.35;3696682;78;99160;-86
2022/06/12 09:42:10;;;;;;;6.47;1.85;;;;;;;37.27;28.98;100907.13;3691065;78;98872;-87
2022/06/12 09:47:16;;;;;;;4.92;2.08;;;;;;;37.46;30.08;100895.64;3677786;78;98916;-87
2022/06/12 09:52:39;;;;;;;3.22;1.92;;;;;;;38.01;29.46;100884.45;3654117;79;26268;-86
2022/06/12 09:58:04;;;;;;;4.33;1.77;;;;;;;37.89;29.68;100888.09;3622833;79;99120;-86
2022/06/12 10:03:29;;;;;;;3.83;1.90;;;;;;;37.75;29.23;100885.91;3574651;80;99216;-85
2022/06/12 10:08:50;;;;;;;6.95;2.15;;;;;;;37.73;27.89;100877.09;3667099;78;99014;-86
2022/06/12 10:14:06;;;;;;;5.33;2.00;;;;;;;37.28;28.30;100870.69;3673694;78;99222;-85
2022/06/12 10:19:18;;;;;;;5.47;2.47;;;;;;;36.79;27.66;100880.19;3678239;78;99405;-86
2022/06/12 10:24:20;;;;;;;4.65;2.08;;;;;;;36.19;27.76;100879.05;3680033;78;99243;-86
2022/06/12 10:29:24;;;;;;;6.60;2.05;;;;;;;35.80;28.35;100870.97;3686108;78;98829;-81
2022/06/12 10:34:29;;;;;;;4.90;2.20;;;;;;;35.21;29.33;100867.49;3685808;78;25748;-84
2022/06/12 10:39:32;;;;;;;5.15;1.95;;;;;;;34.25;30.21;100862.33;3687649;78;99210;-84
2022/06/12 10:44:43;;;;;;;5.08;2.12;;;;;;;33.71;29.46;100857.67;3683842;78;99009;-84
2022/06/12 10:49:46;;;;;;;3.08;2.02;;;;;;;32.89;30.02;100850.92;3678207;78;98910;-83
2022/06/12 10:54:50;;;;;;;4.67;2.00;;;;;;;32.43;31.39;100849.22;3693677;78;98524;-83
2022/06/12 11:00:09;;;;;;;4.55;2.02;;;;;;;32.08;31.46;100848.91;3692904;78;99154;-84
2022/06/12 11:05:35;;;;;;;3.50;1.98;;;;;;;31.97;32.10;100848.09;3699800;78;98796;-82
2022/06/12 11:10:57;;;;;;;7.00;2.35;;;;;;;31.69;31.60;100842.30;3683000;78;98877;-82
2022/06/12 11:16:07;;;;;;;4.92;2.10;;;;;;;31.64;32.17;100845.12;3691163;78;98880;-83
2022/06/12 11:21:16;;;;;;;4.33;2.00;;;;;;;30.98;33.35;100834.81;3684846;78;98617;-84
2022/06/12 11:26:50;;;;;;;5.62;2.42;;;;;;;30.77;33.97;100839.85;3703168;78;99149;-84
2022/06/12 11:32:30;;;;;;;5.65;1.98;;;;;;;30.70;35.48;100829.59;3682083;78;98798;-83
2022/06/12 11:37:52;;;;;;;3.95;1.95;;;;;;;30.50;34.75;100828.23;3675218;78;99160;-84
2022/06/12 11:43:14;;;;;;;3.52;2.15;;;;;;;30.38;34.95;100832.27;3671013;78;99273;-84
2022/06/12 11:48:35;;;;;;;5.50;2.10;;;;;;;30.24;36.08;100833.19;3670452;78;98898;-84
2022/06/12 11:54:00;;;;;;;5.20;2.17;;;;;;;30.11;36.22;100834.20;3689600;78;99263;-83
2022/06/12 11:59:32;;;;;;;4.65;2.50;;;;;;;29.63;35.40;100831.72;3683181;78;98739;-81
2022/06/12 12:05:02;;;;;;;5.67;2.60;;;;;;;29.22;36.20;100823.86;3704526;78;25844;-84
2022/06/12 12:10:50;;;;;;;4.70;2.20;;;;;;;29.03;36.76;100833.88;3670542;79;99030;-81
2022/06/12 12:15:58;;;;;;;8.18;2.50;;;;;;;28.72;37.26;100824.38;3665251;79;98620;-81
2022/06/12 12:21:03;;;;;;;6.47;2.87;;;;;;;28.54;37.61;100811.84;3648841;79;98696;-81
2022/06/12 12:26:18;;;;;;;8.40;2.83;;;;;;;28.33;38.19;100807.38;3658592;79;98814;-81
2022/06/12 12:31:19;;;;;;;5.00;2.37;;;;;;;28.35;39.95;100801.36;3657771;79;99286;-83
2022/06/12 12:41:54;;;;;;;5.15;2.50;;;;;;;28.72;41.31;100796.81;3655070;79;99223;-82
2022/06/12 12:46:55;;;;;;;11.63;3.35;;;;;;;29.04;42.37;100789.33;3650674;80;98877;-82
2022/06/12 12:52:18;;;;;;;6.28;2.30;;;;;;;29.54;43.00;100785.84;3644691;79;99053;-84
2022/06/12 12:57:37;;;;;;;8.78;3.60;;;;;;;30.20;42.79;100780.09;3641586;79;99059;-82
2022/06/12 13:02:54;;;;;;;7.33;3.70;;;;;;;30.94;41.91;100771.75;3659511;79;98826;-82
2022/06/12 13:08:45;;;;;;;11.18;2.60;;;;;;;31.25;41.59;100761.06;3658754;79;99276;-83
2022/06/12 13:14:19;;;;;;;7.37;2.55;;;;;;;31.41;40.09;100751.81;3654469;80;99366;-83
2022/06/12 13:19:26;;;;;;;4.15;2.08;;;;;;;31.81;39.99;100742.10;3626988;79;98878;-82
2022/06/12 13:24:40;;;;;;;4.90;2.27;;;;;;;32.37;40.50;100730.86;3627919;80;99318;-82
2022/06/12 13:29:44;;;;;;;5.30;2.25;;;;;;;32.65;39.64;100721.61;3610203;79;99486;-83
2022/06/12 13:35:05;;;;;;;5.60;2.77;;;;;;;33.21;39.23;100714.41;3631182;79;26565;-83
2022/06/12 13:40:37;;;;;;;4.58;2.40;;;;;;;33.51;38.06;100701.05;3608310;79;99135;-83
2022/06/12 13:45:55;;;;;;;5.33;2.45;;;;;;;33.75;37.73;100691.92;3623571;79;99133;-83
2022/06/12 13:51:30;;;;;;;3.27;2.45;;;;;;;33.85;37.04;100692.39;3611725;79;98728;-83
2022/06/12 13:56:32;;;;;;;5.77;2.67;;;;;;;34.00;37.56;100684.23;3616343;79;103175;-83
2022/06/12 14:01:33;;;;;;;4.60;2.60;;;;;;;34.17;36.94;100669.89;3614896;79;99467;-84
2022/06/12 14:06:39;;;;;;;4.03;2.10;;;;;;;34.37;36.70;100662.31;3611859;79;99214;-83
2022/06/12 14:11:41;;;;;;;6.87;2.55;;;;;;;34.47;36.31;100670.66;3629700;79;99187;-83
2022/06/12 14:16:45;;;;;;;5.62;2.25;;;;;;;34.16;36.35;100669.02;3610981;79;98837;-83
2022/06/12 14:21:46;;;;;;;5.47;2.50;;;;;;;33.62;36.64;100671.77;3632885;80;98622;-83
2022/06/12 14:26:50;;;;;;;5.30;2.40;;;;;;;33.68;36.63;100659.64;3622287;79;98929;-85
2022/06/12 14:31:51;;;;;;;3.97;2.30;;;;;;;33.36;36.87;100655.75;3622411;79;99178;-86
2022/06/12 14:36:56;;;;;;;4.47;2.30;;;;;;;33.54;36.65;100650.03;3631422;80;98799;-86
2022/06/12 14:42:17;;;;;;;6.40;3.27;;;;;;;33.45;37.33;100645.42;3625747;79;99229;-86
2022/06/12 14:47:28;;;;;;;4.10;2.22;;;;;;;33.69;37.27;100624.10;3614529;79;98815;-86
2022/06/12 14:52:29;;;;;;;5.45;2.50;;;;;;;33.65;36.65;100626.47;3626224;79;97578;-86
2022/06/12 14:57:30;;;;;;;3.27;2.00;;;;;;;33.49;36.95;100623.73;3620527;80;99018;-86
2022/06/12 15:02:31;;;;;;;5.37;2.20;;;;;;;33.29;38.28;100622.72;3628732;79;99222;-86
2022/06/12 15:07:32;;;;;;;5.75;2.47;;;;;;;33.24;38.18;100614.95;3602126;80;99250;-86
2022/06/12 15:12:33;;;;;;;4.95;2.58;;;;;;;32.97;38.29;100614.46;3613638;79;99149;-86
2022/06/12 15:17:34;;;;;;;3.02;1.90;;;;;;;32.77;38.95;100625.58;3590216;80;98799;-86
2022/06/12 15:22:35;;;;;;;5.92;2.80;;;;;;;32.54;39.82;100622.67;3598124;80;26226;-85
2022/06/12 15:32:56;;;;;;;5.12;2.30;;;;;;;31.08;37.69;100629.39;3593170;80;99033;-85
2022/06/12 15:37:57;;;;;;;5.65;2.35;;;;;;;30.26;37.91;100631.83;3572140;80;99322;-87
2022/06/12 15:42:58;;;;;;;5.50;2.95;;;;;;;29.47;38.25;100636.59;3614848;81;99217;-85
2022/06/12 15:47:59;;;;;;;7.40;3.10;;;;;;;28.53;38.97;100624.16;3584886;80;99272;-86
2022/06/12 15:53:00;;;;;;;5.00;2.50;;;;;;;27.67;40.70;100631.55;3619774;80;26841;-86
2022/06/12 15:58:01;;;;;;;5.10;2.62;;;;;;;27.26;42.62;100621.34;3609996;81;99134;-86
2022/06/12 16:03:03;;;;;;;4.87;3.12;;;;;;;26.90;45.11;100599.66;3632601;80;99036;-86
2022/06/12 16:08:05;;;;;;;4.65;2.17;;;;;;;26.80;45.72;100589.73;3620363;80;99184;-86
2022/06/12 16:13:06;;;;;;;5.03;2.40;;;;;;;26.71;46.34;100596.20;3633541;80;98846;-86
2022/06/12 16:18:08;;;;;;;4.50;2.33;;;;;;;26.71;47.48;100579.27;3557223;80;98897;-86
2022/06/12 16:23:09;;;;;;;4.67;2.52;;;;;;;26.70;48.06;100574.88;3656058;79;26377;-86
2022/06/12 16:28:10;;;;;;;8.00;2.80;;;;;;;26.67;48.23;100566.61;3594357;80;99132;-86
2022/06/12 16:33:18;;;;;;;5.85;3.12;;;;;;;26.65;48.68;100567.08;3693413;78;98693;-86
2022/06/12 16:38:19;;;;;;;4.83;2.70;;;;;;;26.58;49.03;100568.87;3689128;78;99109;-87
2022/06/12 16:43:21;;;;;;;6.05;3.20;;;;;;;26.53;48.93;100558.22;3692086;78;99047;-86
2022/06/12 16:48:22;;;;;;;5.53;2.42;;;;;;;26.45;49.49;100559.86;3675497;78;99141;-85
2022/06/12 16:53:25;;;;;;;6.12;3.08;;;;;;;26.46;49.83;100558.59;3688526;78;25926;-85
2022/06/12 16:58:26;;;;;;;7.15;3.33;;;;;;;26.50;50.19;100554.17;3672664;78;98823;-85
2022/06/12 17:03:27;;;;;;;7.70;3.05;;;;;;;26.39;50.77;100561.00;3667824;78;99029;-85
2022/06/12 17:08:28;;;;;;;7.42;3.40;;;;;;;26.29;51.46;100559.50;3670184;79;99262;-85
2022/06/12 17:13:29;;;;;;;5.83;3.25;;;;;;;26.19;51.65;100554.55;3666744;79;99197;-85
2022/06/12 17:23:50;;;;;;;6.45;3.70;;;;;;;26.01;52.50;100552.48;3659393;79;99313;-85
2022/06/12 17:28:52;;;;;;;5.60;3.20;;;;;;;25.86;52.58;100555.81;3647100;79;98432;-85
2022/06/12 17:33:53;;;;;;;8.50;3.80;;;;;;;25.74;52.81;100562.46;3707590;78;99003;-85
2022/06/12 17:38:54;;;;;;;6.30;3.25;;;;;;;25.65;53.39;100564.70;3694632;78;98988;-86
2022/06/12 17:43:55;;;;;;;6.97;3.40;;;;;;;25.48;53.79;100562.72;3702016;78;99271;-85
2022/06/12 17:48:56;;;;;;;5.42;3.02;;;;;;;25.41;54.14;100561.66;3660911;79;98931;-85
2022/06/12 17:53:57;;;;;;;9.43;3.70;;;;;;;25.31;54.64;100571.39;3699629;78;99253;-85
2022/06/12 17:58:59;;;;;;;7.20;3.58;;;;;;;25.24;55.03;100568.23;3699399;78;98527;-85
2022/06/12 18:04:00;;;;;;;6.15;3.10;;;;;;;25.14;55.41;100564.52;3689606;79;98997;-85
2022/06/12 18:09:02;;;;;;;5.17;3.20;;;;;;;24.97;56.13;100567.53;3706175;78;98961;-85
2022/06/12 18:14:03;;;;;;;7.90;3.50;;;;;;;24.85;56.67;100574.88;3715051;78;98897;-84
2022/06/12 18:19:08;;;;;;;7.33;3.52;;;;;;;24.74;57.10;100573.81;3703054;78;98807;-85
2022/06/12 18:24:14;;;;;;;7.13;3.43;;;;;;;24.59;57.46;100571.46;3705309;78;99337;-84
2022/06/12 18:29:18;;;;;;;5.97;3.20;;;;;;;24.44;58.09;100571.89;3692469;78;98694;-85
2022/06/12 18:34:20;;;;;;;6.03;3.70;;;;;;;24.31;59.02;100561.41;3716309;78;99031;-86
2022/06/12 18:39:21;;;;;;;9.83;3.65;;;;;;;24.18;59.72;100567.17;3702357;78;98971;-86
2022/06/12 18:44:22;;;;;;;6.92;4.20;;;;;;;24.05;60.50;100572.77;3710122;78;98867;-85
2022/06/12 18:49:23;;;;;;;8.53;4.30;;;;;;;23.91;61.48;100576.16;3706844;78;98867;-85
2022/06/12 18:54:25;;;;;;;9.43;3.80;;;;;;;23.77;62.69;100589.36;3713119;78;99273;-86
2022/06/12 18:59:28;;;;;;;10.28;4.00;;;;;;;23.61;63.21;100591.80;3706035;78;99197;-85
2022/06/12 19:04:29;;;;;;;8.73;4.20;;;;;;;23.44;64.34;100589.68;3708183;78;99098;-83
2022/06/12 19:09:31;;;;;;;11.63;4.50;;;;;;;23.28;65.26;100585.05;3695181;78;99085;-84
2022/06/12 19:14:32;;;;;;;9.93;4.53;;;;;;;23.13;66.36;100587.43;3709115;78;99374;-84
2022/06/12 19:19:33;;;;;;;11.30;4.77;;;;;;;22.97;67.39;100596.85;3697190;78;99463;-85
2022/06/12 19:24:34;;;;;;;8.18;3.98;;;;;;;22.82;67.93;100585.97;3711884;78;99034;-86
2022/06/12 19:29:36;;;;;;;7.33;4.27;;;;;;;22.68;68.69;100596.30;3603026;80;99170;-85
2022/06/12 19:34:37;;;;;;;6.87;4.23;;;;;;;22.55;69.55;100594.80;3607748;80;26451;-86
2022/06/12 19:39:38;;;;;;;8.60;4.17;;;;;;;22.42;70.19;100597.61;3635612;79;98883;-86
2022/06/12 19:44:40;;;;;;;8.10;4.30;;;;;;;22.29;70.55;100601.05;3685573;78;99161;-86
2022/06/12 19:49:41;;;;;;;7.88;4.00;;;;;;;22.14;71.21;100590.16;3654060;78;98850;-87
2022/06/12 19:54:48;;;;;;;9.83;5.07;;;;;;;22.03;71.69;100587.53;3693490;78;99227;-86
2022/06/12 19:59:52;;;;;;;7.92;4.08;;;;;;;21.91;72.17;100590.52;3655143;78;99225;-87
2022/06/12 20:10:16;;;;;;;8.40;4.75;;;;;;;21.67;73.08;100580.86;3686777;78;98979;-87
2022/06/12 20:15:20;;;;;;;9.93;5.00;;;;;;;21.55;73.91;100581.66;3683526;78;99033;-87
2022/06/12 20:20:23;;;;;;;9.50;5.00;;;;;;;21.46;74.44;100572.33;3614844;79;99391;-87
2022/06/12 20:25:24;;;;;;;11.50;5.08;;;;;;;21.35;74.92;100573.27;3682699;79;98763;-88
2022/06/12 20:30:25;;;;;;;8.87;5.17;;;;;;;21.22;75.35;100565.48;3654980;79;99386;-87
2022/06/12 20:35:26;;;;;;;11.30;5.13;;;;;;;21.14;76.02;100567.70;3633918;80;25899;-87
2022/06/12 20:40:28;;;;;;;10.10;5.00;;;;;;;21.07;76.42;100566.52;3667868;79;99209;-86
2022/06/12 20:45:29;;;;;;;13.50;5.17;;;;;;;20.96;76.68;100562.45;3600815;80;99223;-87
2022/06/12 20:50:30;;;;;;;9.47;4.90;;;;;;;20.87;77.34;100563.70;3601116;80;99640;-87
2022/06/12 20:55:31;;;;;;;9.30;4.67;;;;;;;20.77;76.93;100564.78;3672423;79;99204;-87
2022/06/12 21:00:32;;;;;;;9.58;4.92;;;;;;;20.69;78.06;100557.81;3588953;80;99283;-87
2022/06/12 21:05:37;;;;;;;11.57;4.97;;;;;;;20.61;77.73;100553.66;3680284;79;99115;-86
2022/06/12 21:10:41;;;;;;;10.93;5.27;;;;;;;20.50;78.27;100556.72;3669629;80;98804;-86
2022/06/12 21:15:42;;;;;;;9.85;5.08;;;;;;;20.41;78.82;100551.00;3662446;80;99152;-87
2022/06/12 21:20:43;;;;;;;8.80;5.40;;;;;;;20.36;79.45;100549.34;3656509;79;98788;-86
2022/06/12 21:25:47;;;;;;;9.10;5.40;;;;;;;20.30;79.33;100549.70;3642700;79;99384;-87
2022/06/12 21:30:51;;;;;;;9.50;5.15;;;;;;;20.20;80.11;100547.37;3632481;79;99121;-86
2022/06/12 21:35:51;;;;;;;8.05;5.12;;;;;;;20.14;80.60;100551.92;3670497;80;99119;-87
2022/06/12 21:40:52;;;;;;;11.33;5.30;;;;;;;20.08;81.16;100555.08;3658385;80;98670;-87
2022/06/12 21:45:53;;;;;;;11.17;6.20;;;;;;;19.97;81.39;100558.72;3649368;80;99173;-87
2022/06/12 21:50:54;;;;;;;11.00;5.40;;;;;;;19.92;82.14;100549.46;3595637;81;98871;-86
2022/06/12 21:55:55;;;;;;;11.47;5.20;;;;;;;19.86;82.56;100541.44;3701142;78;99491;-87
2022/06/12 22:00:56;;;;;;;10.70;5.33;;;;;;;19.79;82.67;100537.41;3689752;79;99340;-87
2022/06/12 22:05:57;;;;;;;12.27;5.83;;;;;;;19.71;82.40;100542.20;3677376;78;99332;-86
2022/06/12 22:10:58;;;;;;;10.23;5.80;;;;;;;19.61;82.36;100534.89;3684598;79;98696;-86
2022/06/12 22:16:00;;;;;;;11.03;5.07;;;;;;;19.54;83.36;100531.65;3677604;79;99153;-87
2022/06/12 22:21:01;;;;;;;10.87;5.80;;;;;;;19.49;84.17;100522.39;3664590;80;98848;-87
2022/06/12 22:26:04;;;;;;;9.90;6.03;;;;;;;19.44;84.20;100515.93;3670306;79;99255;-87
2022/06/12 22:31:06;;;;;;;11.33;5.70;;;;;;;19.37;84.48;100512.52;3652098;79;98819;-87
2022/06/12 22:36:07;;;;;;;9.63;6.27;;;;;;;19.31;84.75;100509.47;3632503;79;99504;-87
2022/06/12 22:41:08;;;;;;;15.17;6.53;;;;;;;19.24;84.98;100509.61;3619688;79;98631;-87
2022/06/12 22:46:10;;;;;;;12.00;6.43;;;;;;;19.17;85.12;100511.14;3614015;79;99201;-87
2022/06/12 22:51:11;;;;;;;13.20;6.47;;;;;;;19.12;85.48;100513.67;3535874;82;98928;-87
2022/06/12 22:56:13;;;;;;;9.50;5.90;;;;;;;19.04;85.78;100512.25;3627490;79;99340;-87
2022/06/12 23:01:18;;;;;;;12.87;6.07;;;;;;;18.98;86.04;100502.82;3608306;79;99106;-87
2022/06/12 23:06:19;;;;;;;10.23;6.12;;;;;;;18.92;86.43;100494.16;3624316;80;99459;-87
2022/06/12 23:11:20;;;;;;;10.03;5.40;;;;;;;18.87;86.30;100493.30;3630845;79;98240;-86
2022/06/12 23:16:21;;;;;;;14.40;6.37;;;;;;;18.81;86.52;100482.45;3646690;78;99094;-86
2022/06/12 23:21:23;;;;;;;11.90;5.97;;;;;;;18.75;86.93;100475.81;3677730;78;98776;-86
2022/06/12 23:26:24;;;;;;;13.97;6.13;;;;;;;18.69;86.90;100470.56;3664365;80;99472;-86
2022/06/12 23:31:30;;;;;;;14.77;5.67;;;;;;;18.63;86.55;100465.95;3655144;79;99050;-87
2022/06/12 23:36:31;;;;;;;10.38;6.55;;;;;;;18.56;87.18;100465.48;3650899;79;98969;-86
2022/06/12 23:41:33;;;;;;;10.65;6.20;;;;;;;18.52;87.82;100455.00;3658394;79;25765;-86
2022/06/12 23:46:36;;;;;;;14.15;6.80;;;;;;;18.49;88.37;100446.13;3668416;79;99042;-86
2022/06/12 23:51:37;;;;;;;14.45;7.53;;;;;;;18.45;87.74;100439.83;3601005;80;98117;-85
2022/06/12 23:56:38;;;;;;;12.13;7.93;;;;;;;18.36;88.34;100439.60;3558670;80;99021;-86
